SAS36P EDDM-EKCH
Flight info
| Callsign | SAS36P |
|---|---|
| Flight time | 1h 16m |
| Altitude | 34000 |
| Route | INPUD3Q/08L INPUD Y102 UPALA M726 LASGA/N0422F350 DCT BKD/N0428F360 DCT LUWIL DCT BERIM/N0422F350 DCT MAKEL N851 GESKA Z711 MONAK MONAK5C |
| Aircraft | A320/M-SDE3FGHIRWY/LB1 |
Departure
| Time | 2026-05-04 15:07 |
|---|---|
| Airport | Munich Airport (EDDM) |
Arrival
| Time | 2026-05-04 16:23 |
|---|---|
| Airport | Copenhagen Kastrup Airport (EKCH) |
| Time | Latitude | Longitude | Altitude | Speed | Heading |
|---|---|---|---|---|---|
| 2026-05-04 14:41 | 48.35094 | 11.78359 | 1460 ft | 0 kts | 81° |
| 2026-05-04 14:54 | 48.35092 | 11.78340 | 1459 ft | 3 kts | 81° |
| 2026-05-04 14:54 | 48.35090 | 11.78315 | 1460 ft | 2 kts | 81° |
| 2026-05-04 14:55 | 48.35087 | 11.78289 | 1459 ft | 2 kts | 81° |
| 2026-05-04 14:55 | 48.35085 | 11.78263 | 1459 ft | 2 kts | 81° |
| 2026-05-04 14:55 | 48.35077 | 11.78241 | 1457 ft | 2 kts | 12° |
| 2026-05-04 14:55 | 48.35075 | 11.78240 | 1458 ft | 0 kts | 1° |
| 2026-05-04 14:58 | 48.35081 | 11.78239 | 1457 ft | 2 kts | 359° |
| 2026-05-04 14:58 | 48.35107 | 11.78237 | 1461 ft | 5 kts | 355° |
| 2026-05-04 14:59 | 48.35153 | 11.78230 | 1463 ft | 8 kts | 354° |
| 2026-05-04 14:59 | 48.35222 | 11.78218 | 1462 ft | 11 kts | 352° |
| 2026-05-04 14:59 | 48.35361 | 11.78173 | 1464 ft | 8 kts | 300° |
| 2026-05-04 15:00 | 48.35355 | 11.78079 | 1461 ft | 10 kts | 263° |
| 2026-05-04 15:00 | 48.35344 | 11.77970 | 1466 ft | 11 kts | 261° |
| 2026-05-04 15:00 | 48.35336 | 11.77864 | 1466 ft | 11 kts | 266° |
| 2026-05-04 15:01 | 48.35471 | 11.77758 | 1465 ft | 14 kts | 353° |
| 2026-05-04 15:01 | 48.35577 | 11.77738 | 1466 ft | 16 kts | 353° |
| 2026-05-04 15:01 | 48.35678 | 11.77722 | 1463 ft | 13 kts | 354° |
| 2026-05-04 15:01 | 48.35769 | 11.77707 | 1458 ft | 12 kts | 353° |
| 2026-05-04 15:02 | 48.35818 | 11.77699 | 1457 ft | 0 kts | 354° |
| 2026-05-04 15:02 | 48.35852 | 11.77694 | 1466 ft | 10 kts | 354° |
| 2026-05-04 15:03 | 48.35929 | 11.77675 | 1464 ft | 12 kts | 339° |
| 2026-05-04 15:03 | 48.35955 | 11.77562 | 1467 ft | 13 kts | 265° |
| 2026-05-04 15:03 | 48.35946 | 11.77432 | 1458 ft | 13 kts | 261° |
| 2026-05-04 15:03 | 48.35936 | 11.77286 | 1467 ft | 15 kts | 263° |
| 2026-05-04 15:04 | 48.35925 | 11.77146 | 1461 ft | 12 kts | 266° |
| 2026-05-04 15:04 | 48.35959 | 11.77032 | 1460 ft | 13 kts | 310° |
| 2026-05-04 15:04 | 48.36046 | 11.76972 | 1458 ft | 15 kts | 351° |
| 2026-05-04 15:04 | 48.36159 | 11.76949 | 1462 ft | 17 kts | 353° |
| 2026-05-04 15:05 | 48.36261 | 11.76935 | 1464 ft | 10 kts | 6° |
| 2026-05-04 15:05 | 48.36293 | 11.76981 | 1466 ft | 0 kts | 78° |
| 2026-05-04 15:05 | 48.36301 | 11.77057 | 1470 ft | 32 kts | 82° |
| 2026-05-04 15:06 | 48.36355 | 11.77760 | 1465 ft | 100 kts | 83° |
| 2026-05-04 15:06 | 48.36456 | 11.79072 | 1468 ft | 150 kts | 83° |
| 2026-05-04 15:06 | 48.36601 | 11.80746 | 1779 ft | 168 kts | 82° |
| 2026-05-04 15:07 | 48.36942 | 11.84499 | 2664 ft | 201 kts | 83° |
| 2026-05-04 15:07 | 48.37389 | 11.86588 | 3008 ft | 224 kts | 52° |
| 2026-05-04 15:07 | 48.38726 | 11.87924 | 3387 ft | 247 kts | 12° |
| 2026-05-04 15:07 | 48.40511 | 11.87965 | 3915 ft | 266 kts | 346° |
| 2026-05-04 15:08 | 48.42114 | 11.86571 | 4743 ft | 273 kts | 313° |
| 2026-05-04 15:08 | 48.43223 | 11.84238 | 5665 ft | 276 kts | 302° |
| 2026-05-04 15:08 | 48.44354 | 11.81876 | 6582 ft | 280 kts | 307° |
| 2026-05-04 15:08 | 48.45604 | 11.79597 | 7422 ft | 284 kts | 309° |
| 2026-05-04 15:09 | 48.46914 | 11.77354 | 8324 ft | 287 kts | 311° |
| 2026-05-04 15:09 | 48.48524 | 11.75544 | 9176 ft | 294 kts | 331° |
| 2026-05-04 15:09 | 48.50374 | 11.74184 | 10033 ft | 297 kts | 332° |
| 2026-05-04 15:10 | 48.54381 | 11.71286 | 10732 ft | 337 kts | 332° |
| 2026-05-04 15:10 | 48.56521 | 11.69745 | 11375 ft | 344 kts | 332° |
| 2026-05-04 15:10 | 48.60869 | 11.66607 | 12766 ft | 353 kts | 332° |
| 2026-05-04 15:11 | 48.63102 | 11.64992 | 13484 ft | 358 kts | 332° |
| 2026-05-04 15:11 | 48.65367 | 11.63353 | 14162 ft | 363 kts | 332° |
| 2026-05-04 15:11 | 48.67658 | 11.61693 | 14802 ft | 366 kts | 331° |
| 2026-05-04 15:11 | 48.69966 | 11.60019 | 15443 ft | 370 kts | 331° |
| 2026-05-04 15:12 | 48.72290 | 11.58328 | 16069 ft | 373 kts | 331° |
| 2026-05-04 15:12 | 48.74635 | 11.56620 | 16723 ft | 375 kts | 331° |
| 2026-05-04 15:12 | 48.76997 | 11.54899 | 17379 ft | 378 kts | 331° |
| 2026-05-04 15:12 | 48.79377 | 11.53163 | 18002 ft | 381 kts | 330° |
| 2026-05-04 15:13 | 48.81776 | 11.51408 | 18591 ft | 384 kts | 330° |
| 2026-05-04 15:13 | 48.84192 | 11.49639 | 19183 ft | 387 kts | 330° |
| 2026-05-04 15:13 | 48.86622 | 11.47858 | 19788 ft | 389 kts | 330° |
| 2026-05-04 15:13 | 48.89069 | 11.46063 | 20399 ft | 391 kts | 331° |
| 2026-05-04 15:14 | 48.91529 | 11.44260 | 20992 ft | 394 kts | 330° |
| 2026-05-04 15:14 | 48.94003 | 11.42443 | 21577 ft | 396 kts | 330° |
| 2026-05-04 15:14 | 48.96495 | 11.40614 | 22150 ft | 399 kts | 331° |
| 2026-05-04 15:14 | 48.99000 | 11.38770 | 22743 ft | 401 kts | 330° |
| 2026-05-04 15:15 | 49.01520 | 11.36908 | 23314 ft | 404 kts | 330° |
| 2026-05-04 15:15 | 49.04055 | 11.35034 | 23820 ft | 406 kts | 330° |
| 2026-05-04 15:15 | 49.06607 | 11.33146 | 24299 ft | 409 kts | 330° |
| 2026-05-04 15:16 | 49.11753 | 11.29341 | 25215 ft | 413 kts | 330° |
| 2026-05-04 15:16 | 49.14345 | 11.27419 | 25656 ft | 415 kts | 330° |
| 2026-05-04 15:16 | 49.19616 | 11.23674 | 26524 ft | 422 kts | 337° |
| 2026-05-04 15:17 | 49.22479 | 11.22527 | 26950 ft | 429 kts | 347° |
| 2026-05-04 15:17 | 49.28471 | 11.22192 | 27745 ft | 437 kts | 358° |
| 2026-05-04 15:17 | 49.31524 | 11.22231 | 28145 ft | 440 kts | 358° |
| 2026-05-04 15:18 | 49.34592 | 11.22264 | 28542 ft | 442 kts | 357° |
| 2026-05-04 15:18 | 49.37672 | 11.22290 | 28934 ft | 444 kts | 357° |
| 2026-05-04 15:18 | 49.40774 | 11.22311 | 29324 ft | 446 kts | 357° |
| 2026-05-04 15:19 | 49.47022 | 11.22347 | 30058 ft | 452 kts | 357° |
| 2026-05-04 15:19 | 49.50180 | 11.22364 | 30386 ft | 454 kts | 357° |
| 2026-05-04 15:19 | 49.56532 | 11.22417 | 31039 ft | 458 kts | 357° |
| 2026-05-04 15:20 | 49.59724 | 11.22437 | 31414 ft | 458 kts | 356° |
| 2026-05-04 15:20 | 49.62905 | 11.22448 | 31885 ft | 456 kts | 356° |
| 2026-05-04 15:20 | 49.66075 | 11.22452 | 32386 ft | 455 kts | 356° |
| 2026-05-04 15:20 | 49.69193 | 11.22451 | 32838 ft | 453 kts | 356° |
| 2026-05-04 15:21 | 49.72340 | 11.22451 | 33300 ft | 452 kts | 356° |
| 2026-05-04 15:21 | 49.75479 | 11.22455 | 33772 ft | 451 kts | 356° |
| 2026-05-04 15:21 | 49.81711 | 11.22489 | 33981 ft | 442 kts | 356° |
| 2026-05-04 15:22 | 49.84773 | 11.22514 | 33980 ft | 439 kts | 356° |
| 2026-05-04 15:22 | 49.93921 | 11.22567 | 33981 ft | 438 kts | 355° |
| 2026-05-04 15:23 | 50.00011 | 11.22599 | 33980 ft | 438 kts | 356° |
| 2026-05-04 15:23 | 50.06105 | 11.22636 | 33980 ft | 438 kts | 356° |
| 2026-05-04 15:24 | 50.18302 | 11.22695 | 33994 ft | 439 kts | 355° |
| 2026-05-04 15:25 | 50.24405 | 11.22730 | 33995 ft | 439 kts | 356° |
| 2026-05-04 15:26 | 50.33573 | 11.22796 | 34007 ft | 439 kts | 355° |
| 2026-05-04 15:26 | 50.42747 | 11.23333 | 33997 ft | 441 kts | 0° |
| 2026-05-04 15:27 | 50.50899 | 11.24437 | 33991 ft | 442 kts | 0° |
| 2026-05-04 15:28 | 50.61080 | 11.25664 | 33991 ft | 441 kts | 360° |
| 2026-05-04 15:29 | 50.69267 | 11.26565 | 34008 ft | 441 kts | 359° |
| 2026-05-04 15:30 | 50.90698 | 11.29016 | 33988 ft | 442 kts | 359° |
| 2026-05-04 15:31 | 50.99912 | 11.30064 | 33985 ft | 443 kts | 359° |
| 2026-05-04 15:32 | 51.15282 | 11.31850 | 33991 ft | 443 kts | 359° |
| 2026-05-04 15:34 | 51.30659 | 11.33630 | 33987 ft | 443 kts | 359° |
| 2026-05-04 15:34 | 51.39897 | 11.34720 | 33981 ft | 444 kts | 359° |
| 2026-05-04 15:35 | 51.49137 | 11.35810 | 33981 ft | 444 kts | 359° |
| 2026-05-04 15:36 | 51.58394 | 11.36902 | 33992 ft | 445 kts | 359° |
| 2026-05-04 15:36 | 51.64566 | 11.37626 | 33991 ft | 445 kts | 359° |
| 2026-05-04 15:37 | 51.70738 | 11.38361 | 33992 ft | 445 kts | 359° |
| 2026-05-04 15:37 | 51.76905 | 11.39101 | 34006 ft | 444 kts | 359° |
| 2026-05-04 15:38 | 51.83022 | 11.39823 | 34001 ft | 443 kts | 359° |
| 2026-05-04 15:38 | 51.89176 | 11.40554 | 33996 ft | 443 kts | 359° |
| 2026-05-04 15:39 | 51.95322 | 11.41290 | 33993 ft | 443 kts | 359° |
| 2026-05-04 15:40 | 52.04528 | 11.42407 | 34006 ft | 442 kts | 358° |
| 2026-05-04 15:40 | 52.10656 | 11.43140 | 34001 ft | 441 kts | 358° |
| 2026-05-04 15:41 | 52.16778 | 11.43884 | 33994 ft | 441 kts | 358° |
| 2026-05-04 15:41 | 52.22899 | 11.44643 | 34012 ft | 441 kts | 358° |
| 2026-05-04 15:42 | 52.29015 | 11.45396 | 34002 ft | 441 kts | 358° |
| 2026-05-04 15:42 | 52.35135 | 11.46133 | 34004 ft | 441 kts | 357° |
| 2026-05-04 15:43 | 52.41223 | 11.46878 | 33982 ft | 442 kts | 358° |
| 2026-05-04 15:43 | 52.47367 | 11.47635 | 33995 ft | 443 kts | 357° |
| 2026-05-04 15:44 | 52.53511 | 11.48386 | 33987 ft | 443 kts | 357° |
| 2026-05-04 15:44 | 52.59657 | 11.49138 | 33982 ft | 443 kts | 357° |
| 2026-05-04 15:45 | 52.65805 | 11.49906 | 33983 ft | 443 kts | 358° |
| 2026-05-04 15:45 | 52.71953 | 11.50673 | 33998 ft | 443 kts | 357° |
| 2026-05-04 15:46 | 52.78111 | 11.51440 | 33987 ft | 444 kts | 357° |
| 2026-05-04 15:46 | 52.84268 | 11.52218 | 33980 ft | 444 kts | 357° |
| 2026-05-04 15:47 | 52.90434 | 11.52995 | 33975 ft | 444 kts | 357° |
| 2026-05-04 15:47 | 52.96599 | 11.53768 | 33975 ft | 444 kts | 357° |
| 2026-05-04 15:48 | 53.02756 | 11.54459 | 33971 ft | 440 kts | 352° |
| 2026-05-04 15:48 | 53.11753 | 11.52804 | 33974 ft | 432 kts | 345° |
| 2026-05-04 15:49 | 53.17712 | 11.51481 | 33970 ft | 432 kts | 345° |
| 2026-05-04 15:49 | 53.23637 | 11.50167 | 33985 ft | 432 kts | 345° |
| 2026-05-04 15:50 | 53.29603 | 11.48839 | 33980 ft | 433 kts | 345° |
| 2026-05-04 15:50 | 53.35574 | 11.47512 | 33976 ft | 433 kts | 345° |
| 2026-05-04 15:51 | 53.41543 | 11.46190 | 33971 ft | 434 kts | 346° |
| 2026-05-04 15:51 | 53.47655 | 11.46071 | 33989 ft | 441 kts | 353° |
| 2026-05-04 15:52 | 53.53802 | 11.46252 | 33976 ft | 442 kts | 353° |
| 2026-05-04 15:52 | 53.59958 | 11.46421 | 33990 ft | 443 kts | 354° |
| 2026-05-04 15:53 | 53.66124 | 11.46589 | 33985 ft | 443 kts | 354° |
| 2026-05-04 15:53 | 53.72259 | 11.46961 | 34008 ft | 449 kts | 1° |
| 2026-05-04 15:54 | 53.78400 | 11.49398 | 33678 ft | 455 kts | 9° |
| 2026-05-04 15:54 | 53.81446 | 11.50787 | 33194 ft | 451 kts | 8° |
| 2026-05-04 15:54 | 53.84462 | 11.52159 | 32734 ft | 447 kts | 8° |
| 2026-05-04 15:55 | 53.87456 | 11.53519 | 32285 ft | 443 kts | 8° |
| 2026-05-04 15:55 | 53.90418 | 11.54861 | 31834 ft | 439 kts | 8° |
| 2026-05-04 15:55 | 53.93362 | 11.56199 | 31403 ft | 436 kts | 7° |
| 2026-05-04 15:55 | 53.96281 | 11.57530 | 31010 ft | 433 kts | 7° |
| 2026-05-04 15:56 | 53.99177 | 11.58856 | 30598 ft | 430 kts | 7° |
| 2026-05-04 15:56 | 54.02057 | 11.60176 | 30171 ft | 427 kts | 7° |
| 2026-05-04 15:56 | 54.04916 | 11.61489 | 29706 ft | 425 kts | 7° |
| 2026-05-04 15:56 | 54.07767 | 11.62795 | 29222 ft | 423 kts | 7° |
| 2026-05-04 15:57 | 54.10600 | 11.64095 | 28747 ft | 421 kts | 7° |
| 2026-05-04 15:57 | 54.13419 | 11.65394 | 28280 ft | 419 kts | 7° |
| 2026-05-04 15:57 | 54.16229 | 11.66693 | 27807 ft | 417 kts | 7° |
| 2026-05-04 15:57 | 54.19027 | 11.67987 | 27393 ft | 416 kts | 7° |
| 2026-05-04 15:58 | 54.21812 | 11.69276 | 26947 ft | 414 kts | 8° |
| 2026-05-04 15:58 | 54.24590 | 11.70561 | 26508 ft | 413 kts | 8° |
| 2026-05-04 15:58 | 54.27357 | 11.71838 | 26077 ft | 411 kts | 8° |
| 2026-05-04 15:58 | 54.30115 | 11.73112 | 25645 ft | 410 kts | 8° |
| 2026-05-04 15:59 | 54.32865 | 11.74390 | 25230 ft | 409 kts | 8° |
| 2026-05-04 15:59 | 54.35603 | 11.75669 | 24817 ft | 407 kts | 8° |
| 2026-05-04 15:59 | 54.38332 | 11.76948 | 24408 ft | 406 kts | 8° |
| 2026-05-04 15:59 | 54.41047 | 11.78225 | 24006 ft | 404 kts | 8° |
| 2026-05-04 16:00 | 54.43749 | 11.79494 | 23641 ft | 402 kts | 9° |
| 2026-05-04 16:00 | 54.46351 | 11.81132 | 23189 ft | 405 kts | 19° |
| 2026-05-04 16:00 | 54.48908 | 11.83132 | 22722 ft | 403 kts | 19° |
| 2026-05-04 16:00 | 54.51447 | 11.85125 | 22263 ft | 400 kts | 19° |
| 2026-05-04 16:01 | 54.53969 | 11.87111 | 21812 ft | 397 kts | 19° |
| 2026-05-04 16:01 | 54.56470 | 11.89087 | 21365 ft | 394 kts | 20° |
| 2026-05-04 16:01 | 54.58948 | 11.91047 | 20916 ft | 391 kts | 19° |
| 2026-05-04 16:01 | 54.61400 | 11.93025 | 20481 ft | 389 kts | 23° |
| 2026-05-04 16:02 | 54.63704 | 11.95494 | 20056 ft | 389 kts | 29° |
| 2026-05-04 16:02 | 54.65941 | 11.98081 | 19636 ft | 386 kts | 29° |
| 2026-05-04 16:02 | 54.70358 | 12.03191 | 18832 ft | 379 kts | 30° |
| 2026-05-04 16:03 | 54.72541 | 12.05719 | 18430 ft | 375 kts | 30° |
| 2026-05-04 16:03 | 54.74703 | 12.08222 | 17996 ft | 372 kts | 30° |
| 2026-05-04 16:03 | 54.76847 | 12.10707 | 17532 ft | 369 kts | 30° |
| 2026-05-04 16:03 | 54.78970 | 12.13172 | 17079 ft | 366 kts | 30° |
| 2026-05-04 16:04 | 54.81081 | 12.15619 | 16637 ft | 364 kts | 30° |
| 2026-05-04 16:04 | 54.85227 | 12.20441 | 15772 ft | 359 kts | 30° |
| 2026-05-04 16:04 | 54.87290 | 12.22853 | 15341 ft | 356 kts | 30° |
| 2026-05-04 16:05 | 54.89339 | 12.25255 | 14927 ft | 354 kts | 30° |
| 2026-05-04 16:05 | 54.91403 | 12.27677 | 14527 ft | 352 kts | 30° |
| 2026-05-04 16:05 | 54.95416 | 12.32381 | 13704 ft | 348 kts | 30° |
| 2026-05-04 16:06 | 54.97424 | 12.34729 | 13246 ft | 347 kts | 30° |
| 2026-05-04 16:06 | 55.02746 | 12.40944 | 12064 ft | 342 kts | 30° |
| 2026-05-04 16:07 | 55.05352 | 12.43983 | 11496 ft | 339 kts | 30° |
| 2026-05-04 16:07 | 55.11167 | 12.50791 | 10242 ft | 332 kts | 30° |
| 2026-05-04 16:08 | 55.13083 | 12.53040 | 9819 ft | 330 kts | 30° |
| 2026-05-04 16:08 | 55.18704 | 12.59650 | 8937 ft | 310 kts | 30° |
| 2026-05-04 16:09 | 55.22163 | 12.63728 | 8952 ft | 296 kts | 28° |
| 2026-05-04 16:09 | 55.25889 | 12.66471 | 8945 ft | 289 kts | 13° |
| 2026-05-04 16:10 | 55.29722 | 12.68638 | 8948 ft | 290 kts | 13° |
| 2026-05-04 16:11 | 55.35480 | 12.71934 | 8348 ft | 290 kts | 13° |
| 2026-05-04 16:11 | 55.37398 | 12.73036 | 7972 ft | 290 kts | 13° |
| 2026-05-04 16:12 | 55.43131 | 12.76325 | 6847 ft | 288 kts | 13° |
| 2026-05-04 16:12 | 55.48815 | 12.79580 | 5716 ft | 287 kts | 13° |
| 2026-05-04 16:13 | 55.52601 | 12.81772 | 4952 ft | 285 kts | 14° |
| 2026-05-04 16:13 | 55.56356 | 12.83974 | 4186 ft | 284 kts | 16° |
| 2026-05-04 16:14 | 55.59907 | 12.86467 | 4001 ft | 261 kts | 19° |
| 2026-05-04 16:14 | 55.63010 | 12.89108 | 4024 ft | 239 kts | 31° |
| 2026-05-04 16:15 | 55.66784 | 12.94938 | 3759 ft | 239 kts | 38° |
| 2026-05-04 16:16 | 55.69236 | 12.98781 | 3250 ft | 235 kts | 37° |
| 2026-05-04 16:16 | 55.73478 | 13.00164 | 2484 ft | 213 kts | 323° |
| 2026-05-04 16:17 | 55.75500 | 12.96414 | 2045 ft | 206 kts | 310° |
| 2026-05-04 16:18 | 55.77417 | 12.90690 | 2036 ft | 173 kts | 259° |
| 2026-05-04 16:18 | 55.76739 | 12.88942 | 2016 ft | 179 kts | 224° |
| 2026-05-04 16:19 | 55.73958 | 12.84547 | 2005 ft | 179 kts | 226° |
| 2026-05-04 16:19 | 55.72404 | 12.82111 | 2008 ft | 179 kts | 226° |
| 2026-05-04 16:20 | 55.69588 | 12.77717 | 1865 ft | 180 kts | 226° |
| 2026-05-04 16:20 | 55.67710 | 12.74794 | 1426 ft | 177 kts | 226° |
| 2026-05-04 16:21 | 55.65294 | 12.71043 | 787 ft | 140 kts | 225° |
| 2026-05-04 16:22 | 55.63874 | 12.68834 | 408 ft | 135 kts | 225° |
| 2026-05-04 16:22 | 55.61848 | 12.65683 | 27 ft | 97 kts | 221° |
| 2026-05-04 16:23 | 55.61271 | 12.64682 | 26 ft | 20 kts | 245° |
| 2026-05-04 16:24 | 55.61256 | 12.64117 | 25 ft | 13 kts | 356° |
| 2026-05-04 16:25 | 55.61438 | 12.64290 | 26 ft | 18 kts | 36° |
| 2026-05-04 16:26 | 55.61796 | 12.64543 | 25 ft | 14 kts | 354° |
| 2026-05-04 16:26 | 55.62158 | 12.64422 | 22 ft | 20 kts | 349° |
| 2026-05-04 16:27 | 55.62379 | 12.64445 | 24 ft | 17 kts | 17° |
| 2026-05-04 16:28 | 55.62589 | 12.64270 | 24 ft | 12 kts | 342° |
| 2026-05-04 16:28 | 55.62717 | 12.64414 | 24 ft | 5 kts | 97° |
| 2026-05-04 16:29 | 55.62713 | 12.64461 | 24 ft | 0 kts | 99° |